Terminal Aerodrome Forecast
Issued by NWS Upton, NY

Home | Current Version | Previous Version | Text Only | Print | Product List | Glossary On
Versions: 1 2 3 4 5 6 7 8 9 10 11 12 13 14 15 16 17 18 19 20 21 22 23 24 25 26 27 28 29 30 31 32 33 34
000
FTUS41 KOKX 162120 AAB
TAFLGA
TAF AMD
KLGA 162120Z 1621/1724 27014G20KT P6SM VCSH SCT030 OVC040
     FM170000 28008KT P6SM VCSH SCT030 BKN040
     FM170100 30007KT P6SM SCT030 BKN040
     FM170300 34007KT P6SM SCT040
     FM171700 VRB03KT P6SM SCT040
     FM171900 VRB02KT P6SM BKN040=

USA.gov is the U.S. government's official web portal to all federal, state and local government web resources and services.